sensor_id;sensor_type;location;lat;lon;timestamp;temperature;humidity
35645;DHT22;21764;52.042;6.830;2023-03-21T00:03:25;9.90;99.90
35645;DHT22;21764;52.042;6.830;2023-03-21T00:08:26;9.90;99.90
35645;DHT22;21764;52.042;6.830;2023-03-21T00:13:28;9.90;99.90
35645;DHT22;21764;52.042;6.830;2023-03-21T00:18:31;9.90;99.90
35645;DHT22;21764;52.042;6.830;2023-03-21T00:23:32;9.90;99.90
35645;DHT22;21764;52.042;6.830;2023-03-21T00:28:33;9.90;99.90
35645;DHT22;21764;52.042;6.830;2023-03-21T00:33:34;9.90;99.90
35645;DHT22;21764;52.042;6.830;2023-03-21T00:38:38;10.00;99.90
35645;DHT22;21764;52.042;6.830;2023-03-21T00:43:39;10.00;99.90
35645;DHT22;21764;52.042;6.830;2023-03-21T00:48:40;9.90;99.90
35645;DHT22;21764;52.042;6.830;2023-03-21T00:53:41;10.00;99.90
35645;DHT22;21764;52.042;6.830;2023-03-21T00:58:41;10.00;99.90
35645;DHT22;21764;52.042;6.830;2023-03-21T01:03:42;10.00;99.90
35645;DHT22;21764;52.042;6.830;2023-03-21T01:08:47;10.00;99.90
35645;DHT22;21764;52.042;6.830;2023-03-21T01:13:48;9.90;99.90
35645;DHT22;21764;52.042;6.830;2023-03-21T01:18:50;10.00;99.90
35645;DHT22;21764;52.042;6.830;2023-03-21T01:23:50;10.00;99.90
35645;DHT22;21764;52.042;6.830;2023-03-21T01:28:51;10.00;99.90
35645;DHT22;21764;52.042;6.830;2023-03-21T01:33:53;10.00;99.90
35645;DHT22;21764;52.042;6.830;2023-03-21T01:38:54;10.00;99.90
35645;DHT22;21764;52.042;6.830;2023-03-21T01:43:54;10.00;99.90
35645;DHT22;21764;52.042;6.830;2023-03-21T01:49:02;10.00;99.90
35645;DHT22;21764;52.042;6.830;2023-03-21T01:54:04;9.90;99.90
35645;DHT22;21764;52.042;6.830;2023-03-21T01:59:18;9.90;99.90
35645;DHT22;21764;52.042;6.830;2023-03-21T02:04:21;9.80;99.90
35645;DHT22;21764;52.042;6.830;2023-03-21T02:09:30;9.80;99.90
35645;DHT22;21764;52.042;6.830;2023-03-21T02:14:33;9.80;99.90
35645;DHT22;21764;52.042;6.830;2023-03-21T02:25:00;9.70;99.90
35645;DHT22;21764;52.042;6.830;2023-03-21T02:36:24;9.70;99.90
35645;DHT22;21764;52.042;6.830;2023-03-21T02:41:34;9.60;99.90
35645;DHT22;21764;52.042;6.830;2023-03-21T02:52:23;9.70;99.90
35645;DHT22;21764;52.042;6.830;2023-03-21T02:57:26;9.70;99.90
35645;DHT22;21764;52.042;6.830;2023-03-21T03:02:27;9.70;99.90
35645;DHT22;21764;52.042;6.830;2023-03-21T03:18:19;9.70;99.90
35645;DHT22;21764;52.042;6.830;2023-03-21T03:23:44;9.70;99.90
35645;DHT22;21764;52.042;6.830;2023-03-21T03:28:50;9.70;99.90
35645;DHT22;21764;52.042;6.830;2023-03-21T03:33:55;9.70;99.90
35645;DHT22;21764;52.042;6.830;2023-03-21T03:38:59;9.60;99.90
35645;DHT22;21764;52.042;6.830;2023-03-21T03:44:01;9.70;99.90
35645;DHT22;21764;52.042;6.830;2023-03-21T03:49:31;9.70;99.90
35645;DHT22;21764;52.042;6.830;2023-03-21T03:54:38;9.70;99.90
35645;DHT22;21764;52.042;6.830;2023-03-21T03:59:42;9.70;99.90
35645;DHT22;21764;52.042;6.830;2023-03-21T04:04:43;9.70;99.90
35645;DHT22;21764;52.042;6.830;2023-03-21T04:09:44;9.80;99.90
35645;DHT22;21764;52.042;6.830;2023-03-21T04:14:44;9.80;99.90
35645;DHT22;21764;52.042;6.830;2023-03-21T04:19:45;9.80;99.90
35645;DHT22;21764;52.042;6.830;2023-03-21T04:24:46;9.80;99.90
35645;DHT22;21764;52.042;6.830;2023-03-21T04:29:47;9.80;99.90
35645;DHT22;21764;52.042;6.830;2023-03-21T04:34:47;9.80;99.90
35645;DHT22;21764;52.042;6.830;2023-03-21T04:39:53;9.80;99.90
35645;DHT22;21764;52.042;6.830;2023-03-21T04:44:54;9.80;99.90
35645;DHT22;21764;52.042;6.830;2023-03-21T04:49:55;9.80;99.90
35645;DHT22;21764;52.042;6.830;2023-03-21T04:54:56;9.70;99.90
35645;DHT22;21764;52.042;6.830;2023-03-21T04:59:57;9.70;99.90
35645;DHT22;21764;52.042;6.830;2023-03-21T05:04:57;9.70;99.90
35645;DHT22;21764;52.042;6.830;2023-03-21T05:09:58;9.70;99.90
35645;DHT22;21764;52.042;6.830;2023-03-21T05:14:59;9.70;99.90
35645;DHT22;21764;52.042;6.830;2023-03-21T05:20:00;9.70;99.90
35645;DHT22;21764;52.042;6.830;2023-03-21T05:25:00;9.60;99.90
35645;DHT22;21764;52.042;6.830;2023-03-21T05:30:07;9.60;99.90
35645;DHT22;21764;52.042;6.830;2023-03-21T05:35:09;9.60;99.90
35645;DHT22;21764;52.042;6.830;2023-03-21T05:40:10;9.60;99.90
35645;DHT22;21764;52.042;6.830;2023-03-21T05:45:11;9.60;99.90
35645;DHT22;21764;52.042;6.830;2023-03-21T05:50:12;9.60;99.90
35645;DHT22;21764;52.042;6.830;2023-03-21T05:55:13;9.50;99.90
35645;DHT22;21764;52.042;6.830;2023-03-21T06:00:15;9.50;99.90
35645;DHT22;21764;52.042;6.830;2023-03-21T06:05:16;9.50;99.90
35645;DHT22;21764;52.042;6.830;2023-03-21T06:10:16;9.60;99.90
35645;DHT22;21764;52.042;6.830;2023-03-21T06:15:17;9.60;99.90
35645;DHT22;21764;52.042;6.830;2023-03-21T06:20:18;9.60;99.90
35645;DHT22;21764;52.042;6.830;2023-03-21T06:25:19;9.60;99.90
35645;DHT22;21764;52.042;6.830;2023-03-21T06:30:19;9.70;99.90
35645;DHT22;21764;52.042;6.830;2023-03-21T06:35:20;9.80;99.90
35645;DHT22;21764;52.042;6.830;2023-03-21T06:40:21;9.70;99.90
35645;DHT22;21764;52.042;6.830;2023-03-21T06:45:21;9.70;99.90
35645;DHT22;21764;52.042;6.830;2023-03-21T06:50:23;9.70;99.90
35645;DHT22;21764;52.042;6.830;2023-03-21T06:55:24;9.70;99.90
35645;DHT22;21764;52.042;6.830;2023-03-21T07:00:26;9.70;99.90
35645;DHT22;21764;52.042;6.830;2023-03-21T07:05:27;9.70;99.90
35645;DHT22;21764;52.042;6.830;2023-03-21T07:10:27;9.70;99.90
35645;DHT22;21764;52.042;6.830;2023-03-21T07:15:28;9.80;99.90
35645;DHT22;21764;52.042;6.830;2023-03-21T07:20:29;9.90;99.90
35645;DHT22;21764;52.042;6.830;2023-03-21T07:25:30;9.90;99.90
35645;DHT22;21764;52.042;6.830;2023-03-21T07:30:31;10.00;99.90
35645;DHT22;21764;52.042;6.830;2023-03-21T07:35:32;10.00;99.90
35645;DHT22;21764;52.042;6.830;2023-03-21T07:40:33;10.10;99.90
35645;DHT22;21764;52.042;6.830;2023-03-21T07:45:33;10.20;99.90
35645;DHT22;21764;52.042;6.830;2023-03-21T07:50:34;10.20;99.90
35645;DHT22;21764;52.042;6.830;2023-03-21T07:55:35;10.40;99.90
35645;DHT22;21764;52.042;6.830;2023-03-21T08:00:35;10.50;99.90
35645;DHT22;21764;52.042;6.830;2023-03-21T08:05:36;10.70;99.90
35645;DHT22;21764;52.042;6.830;2023-03-21T08:10:37;10.90;99.90
35645;DHT22;21764;52.042;6.830;2023-03-21T08:15:38;11.10;99.90
35645;DHT22;21764;52.042;6.830;2023-03-21T08:20:41;11.10;99.90
35645;DHT22;21764;52.042;6.830;2023-03-21T08:25:42;11.20;99.90
35645;DHT22;21764;52.042;6.830;2023-03-21T08:30:42;11.40;99.90
35645;DHT22;21764;52.042;6.830;2023-03-21T08:35:43;11.50;99.90
35645;DHT22;21764;52.042;6.830;2023-03-21T08:40:44;11.70;99.90
35645;DHT22;21764;52.042;6.830;2023-03-21T08:45:44;12.00;99.90
35645;DHT22;21764;52.042;6.830;2023-03-21T08:50:45;12.00;99.90
35645;DHT22;21764;52.042;6.830;2023-03-21T08:55:47;12.20;99.90
35645;DHT22;21764;52.042;6.830;2023-03-21T09:00:48;12.30;99.90
35645;DHT22;21764;52.042;6.830;2023-03-21T09:05:51;12.30;99.90
35645;DHT22;21764;52.042;6.830;2023-03-21T09:10:53;12.40;99.90
35645;DHT22;21764;52.042;6.830;2023-03-21T09:15:54;12.50;99.90
35645;DHT22;21764;52.042;6.830;2023-03-21T09:20:57;12.60;99.90
35645;DHT22;21764;52.042;6.830;2023-03-21T09:26:00;12.60;99.90
35645;DHT22;21764;52.042;6.830;2023-03-21T09:31:01;12.50;99.90
35645;DHT22;21764;52.042;6.830;2023-03-21T09:36:06;12.40;99.90
35645;DHT22;21764;52.042;6.830;2023-03-21T09:46:47;12.00;99.90
35645;DHT22;21764;52.042;6.830;2023-03-21T09:52:00;12.30;99.90
35645;DHT22;21764;52.042;6.830;2023-03-21T09:57:18;12.50;99.90
35645;DHT22;21764;52.042;6.830;2023-03-21T10:02:43;12.40;99.90
35645;DHT22;21764;52.042;6.830;2023-03-21T10:08:13;12.30;99.90
35645;DHT22;21764;52.042;6.830;2023-03-21T10:13:25;12.40;99.90
35645;DHT22;21764;52.042;6.830;2023-03-21T10:18:29;12.50;99.90
35645;DHT22;21764;52.042;6.830;2023-03-21T10:23:30;12.70;99.90
35645;DHT22;21764;52.042;6.830;2023-03-21T10:28:36;13.00;99.90
35645;DHT22;21764;52.042;6.830;2023-03-21T10:33:41;13.30;99.90
35645;DHT22;21764;52.042;6.830;2023-03-21T10:38:54;13.50;99.90
35645;DHT22;21764;52.042;6.830;2023-03-21T10:44:08;13.70;99.90
35645;DHT22;21764;52.042;6.830;2023-03-21T10:49:14;13.10;99.90
35645;DHT22;21764;52.042;6.830;2023-03-21T10:54:17;12.70;99.90
35645;DHT22;21764;52.042;6.830;2023-03-21T10:59:20;12.70;99.90
35645;DHT22;21764;52.042;6.830;2023-03-21T11:04:25;12.60;99.90
35645;DHT22;21764;52.042;6.830;2023-03-21T11:09:46;12.40;99.90
35645;DHT22;21764;52.042;6.830;2023-03-21T11:14:49;12.20;99.90
35645;DHT22;21764;52.042;6.830;2023-03-21T11:19:53;12.20;99.90
35645;DHT22;21764;52.042;6.830;2023-03-21T11:24:59;12.20;99.90
35645;DHT22;21764;52.042;6.830;2023-03-21T11:30:02;12.30;99.90
35645;DHT22;21764;52.042;6.830;2023-03-21T11:35:17;12.50;99.90
35645;DHT22;21764;52.042;6.830;2023-03-21T11:40:24;13.20;99.90
35645;DHT22;21764;52.042;6.830;2023-03-21T11:45:30;13.40;99.90
35645;DHT22;21764;52.042;6.830;2023-03-21T11:50:39;13.00;99.90
35645;DHT22;21764;52.042;6.830;2023-03-21T12:01:41;13.60;99.90
35645;DHT22;21764;52.042;6.830;2023-03-21T12:06:55;13.40;99.90
35645;DHT22;21764;52.042;6.830;2023-03-21T12:39:38;13.80;99.90
35645;DHT22;21764;52.042;6.830;2023-03-21T12:44:42;14.00;99.90
35645;DHT22;21764;52.042;6.830;2023-03-21T12:49:50;14.20;99.90
35645;DHT22;21764;52.042;6.830;2023-03-21T12:54:55;14.30;99.90
35645;DHT22;21764;52.042;6.830;2023-03-21T12:59:59;14.90;99.90
35645;DHT22;21764;52.042;6.830;2023-03-21T13:05:26;14.80;99.90
35645;DHT22;21764;52.042;6.830;2023-03-21T13:10:28;15.00;99.90
35645;DHT22;21764;52.042;6.830;2023-03-21T13:15:56;14.80;99.90
35645;DHT22;21764;52.042;6.830;2023-03-21T13:21:17;14.20;99.90
35645;DHT22;21764;52.042;6.830;2023-03-21T13:26:35;14.10;99.90
35645;DHT22;21764;52.042;6.830;2023-03-21T13:31:36;14.10;99.90
35645;DHT22;21764;52.042;6.830;2023-03-21T13:36:45;14.20;99.90
35645;DHT22;21764;52.042;6.830;2023-03-21T13:41:48;14.50;99.90
35645;DHT22;21764;52.042;6.830;2023-03-21T13:47:03;14.60;99.90
35645;DHT22;21764;52.042;6.830;2023-03-21T14:02:33;14.50;99.90
35645;DHT22;21764;52.042;6.830;2023-03-21T14:07:41;14.40;99.90
35645;DHT22;21764;52.042;6.830;2023-03-21T14:12:44;14.70;99.90
35645;DHT22;21764;52.042;6.830;2023-03-21T14:17:51;14.30;99.90
35645;DHT22;21764;52.042;6.830;2023-03-21T14:22:52;14.30;99.90
35645;DHT22;21764;52.042;6.830;2023-03-21T14:27:55;14.40;99.90
35645;DHT22;21764;52.042;6.830;2023-03-21T14:32:58;14.10;99.90
35645;DHT22;21764;52.042;6.830;2023-03-21T14:38:04;13.90;99.90
35645;DHT22;21764;52.042;6.830;2023-03-21T14:43:06;14.30;99.90
35645;DHT22;21764;52.042;6.830;2023-03-21T14:48:11;14.50;99.90
35645;DHT22;21764;52.042;6.830;2023-03-21T14:53:19;14.60;99.90
35645;DHT22;21764;52.042;6.830;2023-03-21T14:58:20;14.80;99.90
35645;DHT22;21764;52.042;6.830;2023-03-21T15:03:22;14.60;99.90
35645;DHT22;21764;52.042;6.830;2023-03-21T15:08:25;14.40;99.90
35645;DHT22;21764;52.042;6.830;2023-03-21T15:13:56;14.90;99.90
35645;DHT22;21764;52.042;6.830;2023-03-21T15:19:00;15.10;99.90
35645;DHT22;21764;52.042;6.830;2023-03-21T15:24:08;15.40;99.90
35645;DHT22;21764;52.042;6.830;2023-03-21T15:29:14;15.20;99.90
35645;DHT22;21764;52.042;6.830;2023-03-21T15:34:27;15.40;99.90
35645;DHT22;21764;52.042;6.830;2023-03-21T15:39:29;15.30;99.90
35645;DHT22;21764;52.042;6.830;2023-03-21T15:44:30;15.00;99.90
35645;DHT22;21764;52.042;6.830;2023-03-21T15:49:33;15.20;99.90
35645;DHT22;21764;52.042;6.830;2023-03-21T15:54:48;15.10;99.90
35645;DHT22;21764;52.042;6.830;2023-03-21T16:05:27;14.60;99.90
35645;DHT22;21764;52.042;6.830;2023-03-21T16:10:33;14.50;99.90
35645;DHT22;21764;52.042;6.830;2023-03-21T16:15:34;14.30;99.90
35645;DHT22;21764;52.042;6.830;2023-03-21T16:20:38;14.10;99.90
35645;DHT22;21764;52.042;6.830;2023-03-21T16:25:41;14.40;99.90
35645;DHT22;21764;52.042;6.830;2023-03-21T16:30:42;14.30;99.90
35645;DHT22;21764;52.042;6.830;2023-03-21T16:35:43;14.00;99.90
35645;DHT22;21764;52.042;6.830;2023-03-21T16:40:44;13.90;99.90
35645;DHT22;21764;52.042;6.830;2023-03-21T16:45:44;13.80;99.90
35645;DHT22;21764;52.042;6.830;2023-03-21T16:50:46;13.70;99.90
35645;DHT22;21764;52.042;6.830;2023-03-21T16:55:47;13.60;99.90
35645;DHT22;21764;52.042;6.830;2023-03-21T17:00:48;13.50;99.90
35645;DHT22;21764;52.042;6.830;2023-03-21T17:05:49;13.50;99.90
35645;DHT22;21764;52.042;6.830;2023-03-21T17:10:49;13.40;99.90
35645;DHT22;21764;52.042;6.830;2023-03-21T17:15:51;13.40;99.90
35645;DHT22;21764;52.042;6.830;2023-03-21T17:20:52;13.40;99.90
35645;DHT22;21764;52.042;6.830;2023-03-21T17:25:54;13.30;99.90
35645;DHT22;21764;52.042;6.830;2023-03-21T17:30:55;13.30;99.90
35645;DHT22;21764;52.042;6.830;2023-03-21T17:35:56;13.20;99.90
35645;DHT22;21764;52.042;6.830;2023-03-21T17:40:56;13.20;99.90
35645;DHT22;21764;52.042;6.830;2023-03-21T17:46:00;13.10;99.90
35645;DHT22;21764;52.042;6.830;2023-03-21T17:51:00;13.10;99.90
35645;DHT22;21764;52.042;6.830;2023-03-21T17:56:01;13.00;99.90
35645;DHT22;21764;52.042;6.830;2023-03-21T18:01:02;12.90;99.90
35645;DHT22;21764;52.042;6.830;2023-03-21T18:06:03;12.80;99.90
35645;DHT22;21764;52.042;6.830;2023-03-21T18:11:05;12.90;99.90
35645;DHT22;21764;52.042;6.830;2023-03-21T18:16:07;12.80;99.90
35645;DHT22;21764;52.042;6.830;2023-03-21T18:21:09;12.80;99.90
35645;DHT22;21764;52.042;6.830;2023-03-21T18:26:13;12.70;99.90
35645;DHT22;21764;52.042;6.830;2023-03-21T18:31:17;12.70;99.90
35645;DHT22;21764;52.042;6.830;2023-03-21T18:36:20;12.50;99.90
35645;DHT22;21764;52.042;6.830;2023-03-21T18:41:21;12.30;99.90
35645;DHT22;21764;52.042;6.830;2023-03-21T18:46:22;12.20;99.90
35645;DHT22;21764;52.042;6.830;2023-03-21T18:51:23;12.10;99.90
35645;DHT22;21764;52.042;6.830;2023-03-21T18:56:24;12.00;99.90
35645;DHT22;21764;52.042;6.830;2023-03-21T19:01:24;11.90;99.90
35645;DHT22;21764;52.042;6.830;2023-03-21T19:06:26;11.70;99.90
35645;DHT22;21764;52.042;6.830;2023-03-21T19:11:26;11.40;99.90
35645;DHT22;21764;52.042;6.830;2023-03-21T19:16:27;11.10;99.90
35645;DHT22;21764;52.042;6.830;2023-03-21T19:21:28;11.10;99.90
35645;DHT22;21764;52.042;6.830;2023-03-21T19:26:29;11.10;99.90
35645;DHT22;21764;52.042;6.830;2023-03-21T19:31:30;10.90;99.90
35645;DHT22;21764;52.042;6.830;2023-03-21T19:36:30;10.80;99.90
35645;DHT22;21764;52.042;6.830;2023-03-21T19:41:31;10.70;99.90
35645;DHT22;21764;52.042;6.830;2023-03-21T19:46:32;10.60;99.90
35645;DHT22;21764;52.042;6.830;2023-03-21T19:51:33;10.60;99.90
35645;DHT22;21764;52.042;6.830;2023-03-21T19:56:33;10.60;99.90
35645;DHT22;21764;52.042;6.830;2023-03-21T20:01:34;10.50;99.90
35645;DHT22;21764;52.042;6.830;2023-03-21T20:06:35;10.50;99.90
35645;DHT22;21764;52.042;6.830;2023-03-21T20:11:38;10.60;99.90
35645;DHT22;21764;52.042;6.830;2023-03-21T20:16:38;10.70;99.90
35645;DHT22;21764;52.042;6.830;2023-03-21T20:21:39;10.70;99.90
35645;DHT22;21764;52.042;6.830;2023-03-21T20:26:40;10.70;99.90
35645;DHT22;21764;52.042;6.830;2023-03-21T20:31:42;10.70;99.90
35645;DHT22;21764;52.042;6.830;2023-03-21T20:36:42;10.80;99.90
35645;DHT22;21764;52.042;6.830;2023-03-21T20:41:43;10.80;99.90
35645;DHT22;21764;52.042;6.830;2023-03-21T20:46:44;10.90;99.90
35645;DHT22;21764;52.042;6.830;2023-03-21T20:51:46;11.00;99.90
35645;DHT22;21764;52.042;6.830;2023-03-21T20:56:47;11.00;99.90
35645;DHT22;21764;52.042;6.830;2023-03-21T21:01:48;11.00;99.90
35645;DHT22;21764;52.042;6.830;2023-03-21T21:06:49;11.10;99.90
35645;DHT22;21764;52.042;6.830;2023-03-21T21:11:49;11.00;99.90
35645;DHT22;21764;52.042;6.830;2023-03-21T21:16:50;10.90;99.90
35645;DHT22;21764;52.042;6.830;2023-03-21T21:21:51;10.80;99.90
35645;DHT22;21764;52.042;6.830;2023-03-21T21:26:52;10.60;99.90
35645;DHT22;21764;52.042;6.830;2023-03-21T21:31:53;10.50;99.90
35645;DHT22;21764;52.042;6.830;2023-03-21T21:36:54;10.50;99.90
35645;DHT22;21764;52.042;6.830;2023-03-21T21:41:54;10.60;99.90
35645;DHT22;21764;52.042;6.830;2023-03-21T21:46:55;10.60;99.90
35645;DHT22;21764;52.042;6.830;2023-03-21T21:51:57;10.70;99.90
35645;DHT22;21764;52.042;6.830;2023-03-21T21:56:59;10.80;99.90
35645;DHT22;21764;52.042;6.830;2023-03-21T22:02:00;11.00;99.90
35645;DHT22;21764;52.042;6.830;2023-03-21T22:07:01;10.80;99.90
35645;DHT22;21764;52.042;6.830;2023-03-21T22:12:01;10.70;99.90
35645;DHT22;21764;52.042;6.830;2023-03-21T22:17:02;10.70;99.90
35645;DHT22;21764;52.042;6.830;2023-03-21T22:22:03;10.80;99.90
35645;DHT22;21764;52.042;6.830;2023-03-21T22:27:04;10.90;99.90
35645;DHT22;21764;52.042;6.830;2023-03-21T22:32:05;10.90;99.90
35645;DHT22;21764;52.042;6.830;2023-03-21T22:37:05;10.90;99.90
35645;DHT22;21764;52.042;6.830;2023-03-21T22:42:06;10.80;99.90
35645;DHT22;21764;52.042;6.830;2023-03-21T22:47:08;10.60;99.90
35645;DHT22;21764;52.042;6.830;2023-03-21T22:52:11;10.40;99.90
35645;DHT22;21764;52.042;6.830;2023-03-21T22:57:11;10.30;99.90
35645;DHT22;21764;52.042;6.830;2023-03-21T23:02:13;10.20;99.90
35645;DHT22;21764;52.042;6.830;2023-03-21T23:07:13;10.10;99.90
35645;DHT22;21764;52.042;6.830;2023-03-21T23:12:14;10.10;99.90
35645;DHT22;21764;52.042;6.830;2023-03-21T23:17:16;10.10;99.90
35645;DHT22;21764;52.042;6.830;2023-03-21T23:22:16;10.20;99.90
35645;DHT22;21764;52.042;6.830;2023-03-21T23:27:17;10.10;99.90
35645;DHT22;21764;52.042;6.830;2023-03-21T23:32:18;10.10;99.90
35645;DHT22;21764;52.042;6.830;2023-03-21T23:37:19;10.30;99.90
35645;DHT22;21764;52.042;6.830;2023-03-21T23:42:21;10.40;99.90
35645;DHT22;21764;52.042;6.830;2023-03-21T23:47:22;10.30;99.90
35645;DHT22;21764;52.042;6.830;2023-03-21T23:52:22;10.20;99.90
35645;DHT22;21764;52.042;6.830;2023-03-21T23:57:23;10.00;99.90
